Time;durP1;ratioP1;P1;durP2;ratioP2;P2;SDS_P1;SDS_P2;PMS_P1;PMS_P2;Temp;Humidity;BMP_temperature;BMP_pressure;BME280_temperature;BME280_humidity;BME280_pressure;Samples;Min_cycle;Max_cycle;Signal;HPM_P1;HPM_P2
2022/12/09 00:02:12;;;;;;;15.13;10.10;;;;;;;;;;5033060;28;20053;-87
2022/12/09 00:04:40;;;;;;;12.68;9.18;;;;;;;;;;5033573;28;20056;-88
2022/12/09 00:07:08;;;;;;;13.13;8.85;;;;;;;;;;5034043;28;20049;-88
2022/12/09 00:09:36;;;;;;;12.93;9.40;;;;;;;;;;5033024;28;20464;-88
2022/12/09 00:12:03;;;;;;;14.07;9.48;;;;;;;;;;5032663;28;20060;-88
2022/12/09 00:14:30;;;;;;;14.20;9.32;;;;;;;;;;5033698;28;20050;-88
2022/12/09 00:16:57;;;;;;;13.55;9.18;;;;;;;;;;5032537;28;20049;-88
2022/12/09 00:19:25;;;;;;;14.85;9.65;;;;;;;;;;5032835;28;20045;-88
2022/12/09 00:21:52;;;;;;;12.40;8.77;;;;;;;;;;5033612;28;20045;-88
2022/12/09 00:24:20;;;;;;;13.13;9.18;;;;;;;;;;5032793;28;20049;-88
2022/12/09 00:26:47;;;;;;;15.00;10.38;;;;;;;;;;5033593;28;20042;-88
2022/12/09 00:29:15;;;;;;;15.25;9.57;;;;;;;;;;5032435;28;20069;-88
2022/12/09 00:31:42;;;;;;;14.77;9.25;;;;;;;;;;5033299;28;20136;-88
2022/12/09 00:34:11;;;;;;;16.60;9.93;;;;;;;;;;5032549;28;20493;-88
2022/12/09 00:36:38;;;;;;;10.60;8.20;;;;;;;;;;5033558;28;20061;-88
2022/12/09 00:39:06;;;;;;;13.48;8.65;;;;;;;;;;5032732;28;20065;-88
2022/12/09 00:41:33;;;;;;;20.20;10.93;;;;;;;;;;5032520;28;20049;-88
2022/12/09 00:44:00;;;;;;;18.67;11.10;;;;;;;;;;5032491;28;20109;-88
2022/12/09 00:46:27;;;;;;;15.60;10.55;;;;;;;;;;5033454;28;20390;-87
2022/12/09 00:48:55;;;;;;;14.10;10.20;;;;;;;;;;5032159;28;20049;-88
2022/12/09 00:51:23;;;;;;;13.40;9.48;;;;;;;;;;5032561;28;20509;-88
2022/12/09 00:53:53;;;;;;;12.63;8.90;;;;;;;;;;5032381;28;20477;-88
2022/12/09 00:56:27;;;;;;;13.30;8.38;;;;;;;;;;5032255;28;20551;-88
2022/12/09 00:58:54;;;;;;;12.80;8.32;;;;;;;;;;5032376;28;20088;-88
2022/12/09 01:01:22;;;;;;;13.18;9.48;;;;;;;;;;5032516;28;20073;-89
2022/12/09 01:03:49;;;;;;;13.80;9.68;;;;;;;;;;5033436;28;20053;-89
2022/12/09 01:06:19;;;;;;;15.48;10.13;;;;;;;;;;5032514;28;20045;-89
2022/12/09 01:08:46;;;;;;;14.43;9.65;;;;;;;;;;5032276;28;20041;-89
2022/12/09 01:11:19;;;;;;;16.67;9.30;;;;;;;;;;5032297;28;20053;-89
2022/12/09 01:13:46;;;;;;;14.68;9.70;;;;;;;;;;5033273;28;20042;-89
2022/12/09 01:16:15;;;;;;;17.05;11.05;;;;;;;;;;5032222;28;20057;-89
2022/12/09 01:18:44;;;;;;;21.25;12.32;;;;;;;;;;5032256;28;20099;-90
2022/12/09 01:21:11;;;;;;;28.98;13.98;;;;;;;;;;5032277;28;20103;-90
2022/12/09 01:23:38;;;;;;;35.15;15.10;;;;;;;;;;5033018;28;20271;-90
2022/12/09 01:26:06;;;;;;;33.42;15.43;;;;;;;;;;5032990;28;20045;-89
2022/12/09 01:28:34;;;;;;;39.22;15.88;;;;;;;;;;5032989;28;20080;-91
2022/12/09 01:31:09;;;;;;;31.45;15.07;;;;;;;;;;5033400;28;20057;-90
2022/12/09 01:33:36;;;;;;;27.80;14.52;;;;;;;;;;5033123;28;20092;-90
2022/12/09 01:36:08;;;;;;;28.35;15.02;;;;;;;;;;5033024;28;20057;-91
2022/12/09 01:38:36;;;;;;;25.92;14.35;;;;;;;;;;5032275;28;20140;-91
2022/12/09 01:41:03;;;;;;;50.47;15.85;;;;;;;;;;5035132;28;20132;-91
2022/12/09 01:43:30;;;;;;;27.83;14.57;;;;;;;;;;5035743;28;20045;-92
2022/12/09 01:45:58;;;;;;;25.15;14.05;;;;;;;;;;5035670;28;20486;-91
2022/12/09 01:48:34;;;;;;;33.05;14.80;;;;;;;;;;5036530;28;20545;-92
2022/12/09 01:51:03;;;;;;;26.05;13.00;;;;;;;;;;5035366;28;20053;-92
2022/12/09 01:53:33;;;;;;;25.13;14.82;;;;;;;;;;5035792;28;20053;-92
2022/12/09 01:56:03;;;;;;;35.15;17.63;;;;;;;;;;5035819;28;20092;-92
2022/12/09 01:58:30;;;;;;;34.92;18.98;;;;;;;;;;5035431;28;20099;-92
2022/12/09 02:00:58;;;;;;;30.02;16.65;;;;;;;;;;5035413;28;20482;-92
2022/12/09 02:03:25;;;;;;;26.17;14.25;;;;;;;;;;5035707;28;20050;-92
2022/12/09 02:05:53;;;;;;;26.25;14.32;;;;;;;;;;5036409;28;20073;-92
2022/12/09 02:08:21;;;;;;;31.98;14.20;;;;;;;;;;5036483;28;20049;-92
2022/12/09 02:10:59;;;;;;;32.50;15.52;;;;;;;;;;5035302;28;20045;-92
2022/12/09 02:13:35;;;;;;;33.42;14.32;;;;;;;;;;5036151;28;20090;-92
2022/12/09 02:16:05;;;;;;;37.08;16.48;;;;;;;;;;5036899;28;20437;-93
2022/12/09 02:18:44;;;;;;;37.13;16.02;;;;;;;;;;5035744;28;20145;-93
2022/12/09 02:21:30;;;;;;;36.38;16.50;;;;;;;;;;5037274;28;20433;-93
2022/12/09 02:24:16;;;;;;;35.33;16.02;;;;;;;;;;5037136;28;20058;-93
2022/12/09 02:26:48;;;;;;;43.00;16.83;;;;;;;;;;5037174;28;20065;-93
2022/12/09 02:29:24;;;;;;;35.42;16.08;;;;;;;;;;5036870;28;20072;-93
2022/12/09 02:32:04;;;;;;;41.13;18.08;;;;;;;;;;5037376;28;20053;-93
2022/12/09 02:34:33;;;;;;;49.17;18.40;;;;;;;;;;5037920;28;20080;-93
2022/12/09 02:37:09;;;;;;;43.60;18.40;;;;;;;;;;5038145;28;20045;-93
2022/12/09 02:39:39;;;;;;;47.38;18.35;;;;;;;;;;5040051;28;20069;-92
2022/12/09 02:42:10;;;;;;;57.42;20.00;;;;;;;;;;5047308;28;20056;-92
2022/12/09 02:44:39;;;;;;;57.20;19.20;;;;;;;;;;5048987;28;20064;-92
2022/12/09 02:47:08;;;;;;;58.13;19.23;;;;;;;;;;5040708;28;20445;-93
2022/12/09 02:49:35;;;;;;;38.10;17.95;;;;;;;;;;5041391;28;20060;-93
2022/12/09 02:52:04;;;;;;;44.25;17.70;;;;;;;;;;5040087;28;20041;-93
2022/12/09 02:54:32;;;;;;;49.47;19.65;;;;;;;;;;5043113;28;20096;-93
2022/12/09 02:57:07;;;;;;;51.42;17.95;;;;;;;;;;5042762;28;20084;-93
2022/12/09 02:59:34;;;;;;;43.00;18.13;;;;;;;;;;5044795;28;20061;-93
2022/12/09 03:02:11;;;;;;;48.53;18.27;;;;;;;;;;5044004;28;20056;-93
2022/12/09 03:04:40;;;;;;;42.72;18.42;;;;;;;;;;5044867;28;20080;-92
2022/12/09 03:07:13;;;;;;;69.45;21.48;;;;;;;;;;5042803;28;20132;-93
2022/12/09 03:09:42;;;;;;;31.73;17.08;;;;;;;;;;5042066;28;20139;-93
2022/12/09 03:12:10;;;;;;;32.20;16.33;;;;;;;;;;5043644;28;20067;-93
2022/12/09 03:14:41;;;;;;;31.88;17.23;;;;;;;;;;5042253;28;20041;-93
2022/12/09 03:17:18;;;;;;;34.47;17.35;;;;;;;;;;5044493;28;20049;-92
2022/12/09 03:19:48;;;;;;;33.35;15.82;;;;;;;;;;5045852;28;20406;-93
2022/12/09 03:22:20;;;;;;;26.52;14.43;;;;;;;;;;5050704;28;20467;-93
2022/12/09 03:24:52;;;;;;;37.33;15.50;;;;;;;;;;5048541;28;20057;-92
2022/12/09 03:27:26;;;;;;;36.60;15.98;;;;;;;;;;5049331;28;20056;-93
2022/12/09 03:29:55;;;;;;;21.02;13.23;;;;;;;;;;5051006;28;20049;-92
2022/12/09 03:32:24;;;;;;;24.90;14.18;;;;;;;;;;5047350;28;20069;-93
2022/12/09 03:34:55;;;;;;;23.23;13.65;;;;;;;;;;5051369;28;20050;-93
2022/12/09 03:37:27;;;;;;;31.38;13.63;;;;;;;;;;5051835;28;20061;-92
2022/12/09 03:39:56;;;;;;;25.15;13.80;;;;;;;;;;5051873;28;20045;-92
2022/12/09 03:42:30;;;;;;;20.38;12.65;;;;;;;;;;5050323;28;20243;-92
2022/12/09 03:45:01;;;;;;;21.27;11.93;;;;;;;;;;5045258;28;20083;-92
2022/12/09 03:47:30;;;;;;;17.23;11.48;;;;;;;;;;5048583;28;20153;-92
2022/12/09 03:49:57;;;;;;;21.95;11.10;;;;;;;;;;5048155;28;20049;-92
2022/12/09 03:52:25;;;;;;;18.55;11.45;;;;;;;;;;5048261;28;20045;-92
2022/12/09 03:55:00;;;;;;;20.83;12.35;;;;;;;;;;5047816;28;20084;-92
2022/12/09 03:57:28;;;;;;;18.48;11.32;;;;;;;;;;5047202;28;20117;-92
2022/12/09 03:59:58;;;;;;;22.27;12.23;;;;;;;;;;5045234;28;20073;-92
2022/12/09 04:02:26;;;;;;;19.15;12.35;;;;;;;;;;5043372;28;20053;-92
2022/12/09 04:04:54;;;;;;;20.63;11.30;;;;;;;;;;5043181;28;20057;-92
2022/12/09 04:07:22;;;;;;;28.42;13.35;;;;;;;;;;5041390;28;20049;-92
2022/12/09 04:09:49;;;;;;;29.27;13.93;;;;;;;;;;5039189;28;20061;-92
2022/12/09 04:12:16;;;;;;;23.60;13.25;;;;;;;;;;5037765;28;20053;-92
2022/12/09 04:14:44;;;;;;;35.40;14.43;;;;;;;;;;5037696;28;20056;-92
2022/12/09 04:17:12;;;;;;;28.70;14.50;;;;;;;;;;5036916;28;20057;-92
2022/12/09 04:19:39;;;;;;;41.47;13.88;;;;;;;;;;5036070;28;20069;-92
2022/12/09 04:22:07;;;;;;;41.30;15.18;;;;;;;;;;5035432;28;20132;-92
2022/12/09 04:24:34;;;;;;;40.33;16.17;;;;;;;;;;5034214;28;20054;-92
2022/12/09 04:27:04;;;;;;;35.67;16.15;;;;;;;;;;5036205;28;20401;-91
2022/12/09 04:29:31;;;;;;;38.45;15.50;;;;;;;;;;5035901;28;20450;-92
2022/12/09 04:31:59;;;;;;;27.45;14.32;;;;;;;;;;5034083;28;20050;-92
2022/12/09 04:34:26;;;;;;;36.55;15.27;;;;;;;;;;5033689;28;20049;-92
2022/12/09 04:36:53;;;;;;;43.80;16.15;;;;;;;;;;5033651;28;20208;-92
2022/12/09 04:39:21;;;;;;;30.10;14.77;;;;;;;;;;5033709;28;20053;-92
2022/12/09 04:41:48;;;;;;;32.50;15.05;;;;;;;;;;5033800;28;20046;-91
2022/12/09 04:44:16;;;;;;;36.05;14.55;;;;;;;;;;5033294;28;20055;-91
2022/12/09 04:46:43;;;;;;;29.65;13.80;;;;;;;;;;5032953;28;20550;-91
2022/12/09 04:49:11;;;;;;;30.58;14.43;;;;;;;;;;5033501;28;20102;-92
2022/12/09 04:51:38;;;;;;;26.30;13.80;;;;;;;;;;5032796;28;20053;-91
2022/12/09 04:54:07;;;;;;;24.73;13.30;;;;;;;;;;5033594;28;20049;-91
2022/12/09 04:56:35;;;;;;;20.98;12.55;;;;;;;;;;5034374;28;20053;-91
2022/12/09 04:59:03;;;;;;;20.17;10.43;;;;;;;;;;5046439;28;20092;-90
2022/12/09 05:01:31;;;;;;;17.80;10.68;;;;;;;;;;5034757;28;20123;-90
2022/12/09 05:03:59;;;;;;;17.58;10.75;;;;;;;;;;5033069;28;20133;-91
2022/12/09 05:06:26;;;;;;;13.95;9.63;;;;;;;;;;5038575;28;20076;-91
2022/12/09 05:08:54;;;;;;;15.52;10.13;;;;;;;;;;5032795;28;20413;-91
2022/12/09 05:11:22;;;;;;;15.65;9.98;;;;;;;;;;5032295;28;20509;-91
2022/12/09 05:13:51;;;;;;;17.75;9.68;;;;;;;;;;5032792;28;20502;-91
2022/12/09 05:16:18;;;;;;;14.32;9.10;;;;;;;;;;5036295;28;20049;-91
2022/12/09 05:18:47;;;;;;;16.23;9.65;;;;;;;;;;5036920;28;20076;-90
2022/12/09 05:21:16;;;;;;;15.40;9.00;;;;;;;;;;5036423;28;20079;-91
2022/12/09 05:23:44;;;;;;;13.63;8.48;;;;;;;;;;5036659;28;20068;-91
2022/12/09 05:26:13;;;;;;;20.25;9.40;;;;;;;;;;5036698;28;20046;-91
2022/12/09 05:28:41;;;;;;;17.33;8.80;;;;;;;;;;5036588;28;20049;-91
2022/12/09 05:31:10;;;;;;;18.02;9.10;;;;;;;;;;5036125;28;20071;-91
2022/12/09 05:33:38;;;;;;;18.80;9.50;;;;;;;;;;5036295;28;20053;-90
2022/12/09 05:36:08;;;;;;;20.25;10.48;;;;;;;;;;5036471;28;20053;-91
2022/12/09 05:38:36;;;;;;;24.38;12.50;;;;;;;;;;5036398;28;20127;-91
2022/12/09 05:41:03;;;;;;;22.77;11.45;;;;;;;;;;5036756;28;20128;-91
2022/12/09 05:43:35;;;;;;;31.77;13.25;;;;;;;;;;5036497;28;20061;-91
2022/12/09 05:46:03;;;;;;;28.42;13.52;;;;;;;;;;5036005;28;20060;-91
2022/12/09 05:48:31;;;;;;;38.25;14.40;;;;;;;;;;5035779;28;20049;-91
2022/12/09 05:51:28;;;;;;;37.45;15.30;;;;;;;;;;5036134;28;20049;-91
2022/12/09 05:53:57;;;;;;;36.80;15.55;;;;;;;;;;5023714;28;20156;-90
2022/12/09 05:56:25;;;;;;;36.03;15.13;;;;;;;;;;5035817;28;20055;-91
2022/12/09 05:58:53;;;;;;;33.20;15.10;;;;;;;;;;5036059;28;20057;-90
2022/12/09 06:01:21;;;;;;;26.25;12.65;;;;;;;;;;5035389;28;20095;-90
2022/12/09 06:03:50;;;;;;;27.77;11.88;;;;;;;;;;5035538;28;20060;-91
2022/12/09 06:06:19;;;;;;;21.30;10.00;;;;;;;;;;5035607;28;20057;-90
2022/12/09 06:08:47;;;;;;;17.38;9.70;;;;;;;;;;5036151;28;20053;-90
2022/12/09 06:11:17;;;;;;;18.27;10.10;;;;;;;;;;5036143;28;20049;-90
2022/12/09 06:13:45;;;;;;;20.63;11.45;;;;;;;;;;5035985;28;20057;-91
2022/12/09 06:16:13;;;;;;;20.92;10.40;;;;;;;;;;5035577;28;20057;-90
2022/12/09 06:18:41;;;;;;;23.35;11.23;;;;;;;;;;5035161;28;20053;-91
2022/12/09 06:21:10;;;;;;;25.35;11.95;;;;;;;;;;5035196;28;20529;-91
2022/12/09 06:23:39;;;;;;;24.65;12.05;;;;;;;;;;5034894;28;20501;-90
2022/12/09 06:26:11;;;;;;;18.77;9.40;;;;;;;;;;5035073;28;20045;-90
2022/12/09 06:28:39;;;;;;;17.77;9.50;;;;;;;;;;5035081;28;20442;-90
2022/12/09 06:31:06;;;;;;;16.20;8.90;;;;;;;;;;5035468;28;20144;-90
2022/12/09 06:33:35;;;;;;;17.88;10.15;;;;;;;;;;5035172;28;20057;-90
2022/12/09 06:36:21;;;;;;;30.10;12.88;;;;;;;;;;5035354;28;20058;-90
2022/12/09 06:38:48;;;;;;;26.60;13.50;;;;;;;;;;5034689;28;20391;-90
2022/12/09 06:41:16;;;;;;;24.45;11.93;;;;;;;;;;5034870;28;20128;-90
2022/12/09 06:43:44;;;;;;;22.52;11.43;;;;;;;;;;5034965;28;20437;-90
2022/12/09 06:46:18;;;;;;;33.20;13.80;;;;;;;;;;5034578;28;20477;-90
2022/12/09 06:48:46;;;;;;;43.05;17.08;;;;;;;;;;5034993;28;20060;-90
2022/12/09 06:51:14;;;;;;;67.15;20.88;;;;;;;;;;5034646;28;20091;-90
2022/12/09 06:53:41;;;;;;;58.30;20.30;;;;;;;;;;5034636;28;20056;-90
2022/12/09 06:56:10;;;;;;;60.90;21.73;;;;;;;;;;5034587;28;20053;-90
2022/12/09 06:58:39;;;;;;;57.25;18.13;;;;;;;;;;5034497;28;20056;-90
2022/12/09 07:01:12;;;;;;;33.03;15.35;;;;;;;;;;5034468;28;20075;-89
2022/12/09 07:03:44;;;;;;;36.33;14.50;;;;;;;;;;5034438;28;20050;-90
2022/12/09 07:06:31;;;;;;;25.33;12.25;;;;;;;;;;5034401;28;20049;-90
2022/12/09 07:09:00;;;;;;;24.27;12.15;;;;;;;;;;5034330;28;20075;-90
2022/12/09 07:11:28;;;;;;;21.33;10.57;;;;;;;;;;5034320;28;20041;-89
2022/12/09 07:13:56;;;;;;;35.08;13.70;;;;;;;;;;5036154;28;20109;-90
2022/12/09 07:16:24;;;;;;;40.63;18.50;;;;;;;;;;5034489;28;20136;-90
2022/12/09 07:18:52;;;;;;;26.95;12.05;;;;;;;;;;5033298;28;20057;-90
2022/12/09 07:21:20;;;;;;;27.27;12.63;;;;;;;;;;5033995;28;20524;-89
2022/12/09 07:23:48;;;;;;;31.15;15.70;;;;;;;;;;5033773;28;20069;-89
2022/12/09 07:26:16;;;;;;;32.72;16.00;;;;;;;;;;5033741;28;20111;-89
2022/12/09 07:28:49;;;;;;;33.88;14.57;;;;;;;;;;5034281;28;20442;-90
2022/12/09 07:31:21;;;;;;;31.80;12.95;;;;;;;;;;5034635;28;20405;-89
2022/12/09 07:33:49;;;;;;;25.67;12.07;;;;;;;;;;5043438;28;20238;-90
2022/12/09 07:36:18;;;;;;;27.55;12.35;;;;;;;;;;5033725;28;20191;-90
2022/12/09 07:38:48;;;;;;;21.00;11.52;;;;;;;;;;5033120;28;20052;-89
2022/12/09 07:41:18;;;;;;;35.10;16.65;;;;;;;;;;5033571;28;20050;-89
2022/12/09 07:43:45;;;;;;;39.85;16.92;;;;;;;;;;5034859;28;20050;-89
2022/12/09 07:46:14;;;;;;;31.88;15.55;;;;;;;;;;5033939;28;20054;-89
2022/12/09 07:48:41;;;;;;;31.90;15.45;;;;;;;;;;5033791;28;20401;-89
2022/12/09 07:51:09;;;;;;;32.08;15.43;;;;;;;;;;5033805;28;20049;-89
2022/12/09 07:53:37;;;;;;;39.22;19.05;;;;;;;;;;5032897;28;20053;-90
2022/12/09 07:56:06;;;;;;;71.15;32.42;;;;;;;;;;5033511;28;20052;-90
2022/12/09 07:58:34;;;;;;;34.40;19.00;;;;;;;;;;5033779;28;20057;-89
2022/12/09 08:01:13;;;;;;;28.42;14.57;;;;;;;;;;5033538;28;20493;-90
2022/12/09 08:03:41;;;;;;;24.83;13.68;;;;;;;;;;5033192;28;20107;-90
2022/12/09 08:06:13;;;;;;;24.25;13.77;;;;;;;;;;5033540;28;20104;-90
2022/12/09 08:08:41;;;;;;;27.67;15.10;;;;;;;;;;5033715;28;20145;-90
2022/12/09 08:11:10;;;;;;;39.00;21.33;;;;;;;;;;5033652;28;20073;-89
2022/12/09 08:13:38;;;;;;;48.33;25.88;;;;;;;;;;5033201;28;20049;-89
2022/12/09 08:16:06;;;;;;;56.30;28.80;;;;;;;;;;5032917;28;20083;-90
2022/12/09 08:18:35;;;;;;;41.65;23.45;;;;;;;;;;5033093;28;20049;-90
2022/12/09 08:21:04;;;;;;;30.00;15.48;;;;;;;;;;5033361;28;20132;-90
2022/12/09 08:23:31;;;;;;;21.65;13.43;;;;;;;;;;5032519;28;20512;-90
2022/12/09 08:25:59;;;;;;;28.38;15.38;;;;;;;;;;5032937;28;20049;-89
2022/12/09 08:28:28;;;;;;;30.40;16.63;;;;;;;;;;5033066;28;20053;-90
2022/12/09 08:30:58;;;;;;;33.33;17.13;;;;;;;;;;5033325;28;20080;-90
2022/12/09 08:33:26;;;;;;;34.92;17.60;;;;;;;;;;5032471;28;20448;-90
2022/12/09 08:35:53;;;;;;;35.72;19.08;;;;;;;;;;5033011;28;20041;-90
2022/12/09 08:38:21;;;;;;;42.47;23.35;;;;;;;;;;5032880;28;20108;-89
2022/12/09 08:40:48;;;;;;;126.68;65.15;;;;;;;;;;5032985;28;20426;-90
2022/12/09 08:43:16;;;;;;;60.95;27.85;;;;;;;;;;5032554;28;20111;-90
2022/12/09 08:45:43;;;;;;;41.60;22.85;;;;;;;;;;5032941;28;20057;-89
2022/12/09 08:48:11;;;;;;;37.13;19.30;;;;;;;;;;5032801;28;20527;-90
2022/12/09 08:50:38;;;;;;;38.13;19.83;;;;;;;;;;5032547;28;20482;-90
2022/12/09 08:53:06;;;;;;;75.70;30.33;;;;;;;;;;5032495;28;20387;-90
2022/12/09 08:55:37;;;;;;;45.10;24.08;;;;;;;;;;5032733;28;20042;-90
2022/12/09 08:58:05;;;;;;;41.63;22.33;;;;;;;;;;5032628;28;20064;-90
2022/12/09 09:00:33;;;;;;;36.83;20.15;;;;;;;;;;5032467;28;20056;-90
2022/12/09 09:03:00;;;;;;;34.08;19.10;;;;;;;;;;5032898;28;20085;-89
2022/12/09 09:05:28;;;;;;;34.33;20.35;;;;;;;;;;5032486;28;20060;-90
2022/12/09 09:07:56;;;;;;;35.88;20.42;;;;;;;;;;5032664;28;20480;-90
2022/12/09 09:10:24;;;;;;;36.50;16.55;;;;;;;;;;5032619;28;20054;-89
2022/12/09 09:12:52;;;;;;;38.30;18.08;;;;;;;;;;5032267;28;20152;-90
2022/12/09 09:15:19;;;;;;;34.90;18.98;;;;;;;;;;5031674;28;20064;-90
2022/12/09 09:17:46;;;;;;;35.90;18.15;;;;;;;;;;5032633;28;20410;-90
2022/12/09 09:20:18;;;;;;;39.45;21.92;;;;;;;;;;5032505;28;20099;-90
2022/12/09 09:22:46;;;;;;;40.30;22.88;;;;;;;;;;5032440;28;20050;-90
2022/12/09 09:25:13;;;;;;;51.72;26.85;;;;;;;;;;5032657;28;20080;-90
2022/12/09 09:27:42;;;;;;;28.67;16.98;;;;;;;;;;5038072;28;20053;-90
2022/12/09 09:30:09;;;;;;;26.05;14.02;;;;;;;;;;5036647;28;20080;-90
2022/12/09 09:32:37;;;;;;;28.50;16.33;;;;;;;;;;5037092;28;20579;-90
2022/12/09 09:35:05;;;;;;;30.10;16.63;;;;;;;;;;5037041;28;20137;-90
2022/12/09 09:37:33;;;;;;;23.98;15.40;;;;;;;;;;5037430;28;20421;-90
2022/12/09 09:40:03;;;;;;;33.92;17.17;;;;;;;;;;5037324;28;20050;-91
2022/12/09 09:42:35;;;;;;;39.85;18.73;;;;;;;;;;5036969;28;20054;-90
2022/12/09 09:45:07;;;;;;;31.65;15.82;;;;;;;;;;5021462;28;20049;-90
2022/12/09 09:47:37;;;;;;;30.50;17.63;;;;;;;;;;5037102;28;20067;-90
2022/12/09 09:50:25;;;;;;;22.98;14.40;;;;;;;;;;5034827;28;20049;-90
2022/12/09 09:52:54;;;;;;;28.45;16.98;;;;;;;;;;5037596;28;20049;-89
2022/12/09 09:55:28;;;;;;;35.80;18.17;;;;;;;;;;5037395;28;20049;-90
2022/12/09 09:57:55;;;;;;;;;;;;;;;;;;5037662;28;20057;-90
2022/12/09 10:00:35;;;;;;;24.10;15.20;;;;;;;;;;5037303;28;19967;-89
2022/12/09 10:03:09;;;;;;;29.92;15.85;;;;;;;;;;5040717;28;20060;-90
2022/12/09 10:05:45;;;;;;;26.40;15.02;;;;;;;;;;5036915;28;20131;-90
2022/12/09 10:08:31;;;;;;;25.10;15.38;;;;;;;;;;5036331;28;20045;-90
2022/12/09 10:11:20;;;;;;;22.90;15.07;;;;;;;;;;5035404;28;20045;-90
2022/12/09 10:13:51;;;;;;;30.05;14.77;;;;;;;;;;5035335;28;20050;-90
2022/12/09 10:16:22;;;;;;;23.45;14.40;;;;;;;;;;5035469;28;20045;-90
2022/12/09 10:19:02;;;;;;;26.00;15.13;;;;;;;;;;5035422;28;20046;-90
2022/12/09 10:21:37;;;;;;;29.08;16.60;;;;;;;;;;5035355;28;20055;-89
2022/12/09 10:24:14;;;;;;;24.73;15.23;;;;;;;;;;5036168;28;20498;-89
2022/12/09 10:26:44;;;;;;;23.38;14.70;;;;;;;;;;5035562;28;20057;-89
2022/12/09 10:29:16;;;;;;;22.73;13.45;;;;;;;;;;5035107;28;20049;-89
2022/12/09 10:31:44;;;;;;;21.83;13.15;;;;;;;;;;5035889;28;20482;-89
2022/12/09 10:34:12;;;;;;;19.60;12.73;;;;;;;;;;5035256;28;20063;-89
2022/12/09 10:36:43;;;;;;;21.13;12.45;;;;;;;;;;5035139;28;20057;-89
2022/12/09 10:39:18;;;;;;;29.38;16.05;;;;;;;;;;5036115;28;20055;-89
2022/12/09 10:44:47;;;;;;;20.70;12.75;;;;;;;;;;5013050;28;20049;-89
2022/12/09 10:47:26;;;;;;;22.98;11.93;;;;;;;;;;5035123;28;20049;-89
2022/12/09 10:49:55;;;;;;;18.40;11.48;;;;;;;;;;5034730;28;20117;-89
2022/12/09 10:52:23;;;;;;;18.05;11.80;;;;;;;;;;5034712;28;20046;-89
2022/12/09 10:54:51;;;;;;;17.83;10.40;;;;;;;;;;5034874;28;20053;-89
2022/12/09 10:57:19;;;;;;;30.52;14.07;;;;;;;;;;5035267;28;20050;-88
2022/12/09 11:00:00;;;;;;;186.13;72.38;;;;;;;;;;5035685;28;20053;-89
2022/12/09 11:02:28;;;;;;;19.63;11.02;;;;;;;;;;5035459;28;20049;-88
2022/12/09 11:05:16;;;;;;;55.38;23.85;;;;;;;;;;5034492;28;20041;-89
2022/12/09 11:07:47;;;;;;;137.50;50.40;;;;;;;;;;5034532;28;20095;-89
2022/12/09 11:10:17;;;;;;;110.55;41.20;;;;;;;;;;5034604;28;20053;-88
2022/12/09 11:12:46;;;;;;;112.40;39.35;;;;;;;;;;5034162;28;20111;-89
2022/12/09 11:15:46;;;;;;;89.47;33.85;;;;;;;;;;5034393;28;20376;-89
2022/12/09 11:18:18;;;;;;;71.95;26.80;;;;;;;;;;5013033;28;20140;-89
2022/12/09 11:20:55;;;;;;;39.47;18.90;;;;;;;;;;5033975;28;20140;-88
2022/12/09 11:23:23;;;;;;;41.35;17.95;;;;;;;;;;5033669;28;20405;-88
2022/12/09 11:25:53;;;;;;;34.25;14.82;;;;;;;;;;5034884;28;20446;-88
2022/12/09 11:28:20;;;;;;;23.52;11.00;;;;;;;;;;5034079;28;20472;-88
2022/12/09 11:30:56;;;;;;;19.95;9.90;;;;;;;;;;5034916;28;20457;-88
2022/12/09 11:33:51;;;;;;;15.68;8.30;;;;;;;;;;5033547;28;20060;-88
2022/12/09 11:36:22;;;;;;;17.85;8.82;;;;;;;;;;5033888;28;20556;-88
2022/12/09 11:38:51;;;;;;;20.88;8.60;;;;;;;;;;5033271;28;20049;-87
2022/12/09 11:44:14;;;;;;;16.95;9.20;;;;;;;;;;5034810;28;20059;-88
2022/12/09 11:46:42;;;;;;;;;;;;;;;;;;5033824;28;20046;-88
2022/12/09 11:49:16;;;;;;;20.60;9.23;;;;;;;;;;5034212;28;20015;-88
2022/12/09 11:51:57;;;;;;;16.55;10.25;;;;;;;;;;5033496;28;20045;-87
2022/12/09 11:54:27;;;;;;;22.83;9.88;;;;;;;;;;5033472;28;20409;-87
2022/12/09 11:56:56;;;;;;;16.77;9.82;;;;;;;;;;5034418;28;20045;-87
2022/12/09 11:59:30;;;;;;;17.60;10.50;;;;;;;;;;5033097;28;20496;-87
2022/12/09 12:02:22;;;;;;;27.02;11.05;;;;;;;;;;5034282;28;20052;-87
2022/12/09 12:05:08;;;;;;;22.73;11.43;;;;;;;;;;5034077;28;20068;-87
2022/12/09 12:08:11;;;;;;;23.27;11.88;;;;;;;;;;5033879;28;20053;-86
2022/12/09 12:10:42;;;;;;;21.37;11.10;;;;;;;;;;4976925;28;20050;-87
2022/12/09 12:13:23;;;;;;;28.15;13.25;;;;;;;;;;5026844;28;20048;-86
2022/12/09 12:15:56;;;;;;;24.50;12.63;;;;;;;;;;5032783;28;20053;-86
2022/12/09 12:18:27;;;;;;;30.13;16.33;;;;;;;;;;5033795;28;20541;-87
2022/12/09 12:21:03;;;;;;;22.65;14.80;;;;;;;;;;5033352;28;20410;-86
2022/12/09 12:23:41;;;;;;;23.92;14.57;;;;;;;;;;5033339;28;20053;-87
2022/12/09 12:26:23;;;;;;;27.98;14.40;;;;;;;;;;5033674;28;20061;-85
2022/12/09 12:29:03;;;;;;;26.02;15.15;;;;;;;;;;5033840;28;20049;-86
2022/12/09 12:31:33;;;;;;;22.63;13.40;;;;;;;;;;5033849;28;20076;-86
2022/12/09 12:34:01;;;;;;;22.73;13.43;;;;;;;;;;5032474;28;20045;-86
2022/12/09 12:37:00;;;;;;;20.70;13.85;;;;;;;;;;5032804;28;20060;-86
2022/12/09 12:39:34;;;;;;;19.77;12.10;;;;;;;;;;5032477;28;20049;-87
2022/12/09 12:42:14;;;;;;;21.73;11.73;;;;;;;;;;5032523;28;20053;-86
2022/12/09 12:47:46;;;;;;;17.25;12.02;;;;;;;;;;5033428;28;20050;-87
2022/12/09 12:50:19;;;;;;;16.27;11.77;;;;;;;;;;5032402;28;20050;-87
2022/12/09 12:52:46;;;;;;;16.27;12.13;;;;;;;;;;5032341;28;20041;-87
2022/12/09 12:55:41;;;;;;;20.17;12.48;;;;;;;;;;5032274;28;20045;-86
2022/12/09 12:58:13;;;;;;;19.75;12.45;;;;;;;;;;5032298;28;20048;-86
2022/12/09 13:00:46;;;;;;;19.13;12.57;;;;;;;;;;5033599;28;20049;-86
2022/12/09 13:03:32;;;;;;;18.77;12.52;;;;;;;;;;5032346;28;20461;-86
2022/12/09 13:06:01;;;;;;;17.75;12.32;;;;;;;;;;5033244;28;20081;-87
2022/12/09 13:08:40;;;;;;;16.67;11.85;;;;;;;;;;5032837;28;20052;-86
2022/12/09 13:11:17;;;;;;;20.80;12.25;;;;;;;;;;5032129;28;20049;-86
2022/12/09 13:13:48;;;;;;;18.95;11.77;;;;;;;;;;5032965;28;20057;-87
2022/12/09 13:16:26;;;;;;;19.23;13.00;;;;;;;;;;5031975;28;20561;-86
2022/12/09 13:18:54;;;;;;;21.60;12.52;;;;;;;;;;5032232;28;20053;-86
2022/12/09 13:21:21;;;;;;;23.52;14.32;;;;;;;;;;5033019;28;20057;-86
2022/12/09 13:23:57;;;;;;;22.90;14.90;;;;;;;;;;5032129;28;20061;-87
2022/12/09 13:26:25;;;;;;;27.85;17.70;;;;;;;;;;5033005;28;20049;-87
2022/12/09 13:28:58;;;;;;;26.73;16.42;;;;;;;;;;5032763;28;20050;-87
2022/12/09 13:31:29;;;;;;;34.22;22.30;;;;;;;;;;5032180;28;20049;-87
2022/12/09 13:34:09;;;;;;;26.38;16.77;;;;;;;;;;5032018;28;20046;-87
2022/12/09 13:36:40;;;;;;;19.70;14.20;;;;;;;;;;5033871;28;20072;-87
2022/12/09 13:39:11;;;;;;;20.83;12.80;;;;;;;;;;5036903;28;20042;-87
2022/12/09 13:44:30;;;;;;;20.80;14.15;;;;;;;;;;5040411;28;20054;-88
2022/12/09 13:47:15;;;;;;;21.55;14.18;;;;;;;;;;5038940;28;20049;-87
2022/12/09 13:49:42;;;;;;;27.55;15.32;;;;;;;;;;5037715;28;20049;-87
2022/12/09 13:52:09;;;;;;;26.75;15.10;;;;;;;;;;5042192;28;20057;-87
2022/12/09 13:54:44;;;;;;;25.77;14.50;;;;;;;;;;5038962;28;20073;-87
2022/12/09 13:57:34;;;;;;;27.42;16.95;;;;;;;;;;5039602;28;20045;-87
2022/12/09 14:00:04;;;;;;;29.40;17.85;;;;;;;;;;5040564;28;20054;-88
2022/12/09 14:02:41;;;;;;;28.77;16.40;;;;;;;;;;5039217;28;20119;-87
2022/12/09 14:05:14;;;;;;;37.45;21.35;;;;;;;;;;5038958;28;20046;-87
2022/12/09 14:07:45;;;;;;;52.70;28.48;;;;;;;;;;5038286;28;20057;-87
2022/12/09 14:10:35;;;;;;;36.35;19.05;;;;;;;;;;5036695;28;20046;-87
2022/12/09 14:13:04;;;;;;;97.30;39.22;;;;;;;;;;5036423;28;20049;-87
2022/12/09 14:15:31;;;;;;;51.33;24.73;;;;;;;;;;5035389;28;20425;-87
2022/12/09 14:18:03;;;;;;;63.17;28.42;;;;;;;;;;5035976;28;20049;-87
2022/12/09 14:20:32;;;;;;;33.08;18.58;;;;;;;;;;5035965;28;20084;-87
2022/12/09 14:23:02;;;;;;;32.72;18.63;;;;;;;;;;5038284;28;20064;-86
2022/12/09 14:25:32;;;;;;;23.55;15.70;;;;;;;;;;5035886;28;20069;-87
2022/12/09 14:28:11;;;;;;;25.08;15.20;;;;;;;;;;5036161;28;20045;-87
2022/12/09 14:30:57;;;;;;;22.42;14.52;;;;;;;;;;5035822;28;20140;-86
2022/12/09 14:33:34;;;;;;;23.88;14.57;;;;;;;;;;5034765;28;20056;-86
2022/12/09 14:36:19;;;;;;;79.65;39.80;;;;;;;;;;5034877;28;20330;-86
2022/12/09 14:38:46;;;;;;;32.47;19.42;;;;;;;;;;5034934;28;20228;-87
2022/12/09 14:41:46;;;;;;;23.67;15.05;;;;;;;;;;5035700;28;20057;-87
2022/12/09 14:44:20;;;;;;;20.55;14.00;;;;;;;;;;5034311;28;20417;-87
2022/12/09 14:46:47;;;;;;;;;;;;;;;;;;5035912;28;20049;-87
2022/12/09 14:49:19;;;;;;;21.10;14.35;;;;;;;;;;5035497;28;20000;-86
2022/12/09 14:51:48;;;;;;;20.67;14.52;;;;;;;;;;5034299;28;20060;-86
2022/12/09 14:54:24;;;;;;;25.38;15.50;;;;;;;;;;5035325;28;20072;-86